Time;durP1;ratioP1;P1;durP2;ratioP2;P2;SDS_P1;SDS_P2;PMS_P1;PMS_P2;Temp;Humidity;BMP_temperature;BMP_pressure;BME280_temperature;BME280_humidity;BME280_pressure;Samples;Min_cycle;Max_cycle;Signal;HPM_P1;HPM_P2
2023/12/20 00:02:13;;;;;;;10.27;6.15;;;6.80;99.90;;;;;;5017385;28;20065;-57
2023/12/20 00:04:38;;;;;;;9.45;6.00;;;6.80;99.90;;;;;;5019748;28;20467;-53
2023/12/20 00:07:05;;;;;;;7.60;5.55;;;6.80;99.90;;;;;;5021941;28;20423;-54
2023/12/20 00:09:30;;;;;;;7.93;5.10;;;6.80;99.90;;;;;;5024145;28;20034;-57
2023/12/20 00:11:57;;;;;;;7.45;5.18;;;6.80;99.90;;;;;;5030661;28;20040;-54
2023/12/20 00:14:22;;;;;;;7.55;5.30;;;6.80;99.90;;;;;;5031100;28;20597;-55
2023/12/20 00:16:47;;;;;;;8.90;5.82;;;6.80;99.90;;;;;;5031591;28;20026;-55
2023/12/20 00:19:13;;;;;;;7.43;5.30;;;6.90;99.90;;;;;;5014166;28;20439;-56
2023/12/20 00:21:39;;;;;;;7.30;5.47;;;6.80;99.90;;;;;;5031291;28;20025;-55
2023/12/20 00:24:04;;;;;;;6.97;5.30;;;6.90;99.90;;;;;;5012976;28;20030;-54
2023/12/20 00:26:30;;;;;;;7.60;5.97;;;6.90;99.90;;;;;;5031234;28;20032;-55
2023/12/20 00:28:56;;;;;;;8.40;5.70;;;6.90;99.90;;;;;;5011467;28;20038;-55
2023/12/20 00:31:21;;;;;;;7.35;5.13;;;6.90;99.90;;;;;;5030774;28;20113;-55
2023/12/20 00:33:47;;;;;;;6.90;5.00;;;6.90;99.90;;;;;;5011846;28;20030;-56
2023/12/20 00:36:12;;;;;;;6.25;4.43;;;6.90;99.90;;;;;;5030401;28;20033;-54
2023/12/20 00:38:38;;;;;;;6.28;4.88;;;6.90;99.90;;;;;;5030972;28;20033;-55
2023/12/20 00:41:03;;;;;;;6.50;4.93;;;6.90;99.90;;;;;;5027362;28;20038;-53
2023/12/20 00:43:29;;;;;;;6.15;4.88;;;6.90;99.90;;;;;;5030795;28;20487;-55
2023/12/20 00:45:55;;;;;;;6.70;4.88;;;6.90;99.90;;;;;;5025528;28;20152;-73
2023/12/20 00:48:21;;;;;;;7.47;5.25;;;6.90;99.90;;;;;;5031186;28;20160;-67
2023/12/20 00:50:46;;;;;;;5.85;4.38;;;6.90;99.90;;;;;;5013207;28;20531;-53
2023/12/20 00:53:12;;;;;;;5.53;4.50;;;6.90;99.90;;;;;;5031043;28;20136;-51
2023/12/20 00:55:37;;;;;;;6.10;4.63;;;6.90;99.90;;;;;;5012145;28;20030;-55
2023/12/20 00:58:03;;;;;;;6.32;4.47;;;6.90;99.90;;;;;;5030842;28;20522;-55
2023/12/20 01:00:29;;;;;;;5.60;4.45;;;6.90;99.90;;;;;;5009400;28;20044;-54
2023/12/20 01:02:54;;;;;;;6.88;4.63;;;6.90;99.90;;;;;;5022895;28;20057;-54
2023/12/20 01:05:22;;;;;;;5.55;4.05;;;6.90;99.90;;;;;;5011030;28;20022;-53
2023/12/20 01:07:48;;;;;;;7.63;4.57;;;6.90;99.90;;;;;;5010806;28;20476;-55
2023/12/20 01:10:14;;;;;;;6.07;4.80;;;6.90;99.90;;;;;;5029719;28;20333;-57
2023/12/20 01:12:39;;;;;;;5.47;4.43;;;6.90;99.90;;;;;;5030023;28;20034;-56
2023/12/20 01:15:05;;;;;;;6.22;4.90;;;6.90;99.90;;;;;;5011454;28;20034;-57
2023/12/20 01:17:31;;;;;;;5.90;4.07;;;6.90;99.90;;;;;;5029474;28;20446;-55
2023/12/20 01:19:56;;;;;;;5.82;4.80;;;6.90;99.90;;;;;;5030413;28;20025;-56
2023/12/20 01:22:22;;;;;;;6.00;4.70;;;6.90;99.90;;;;;;5027840;28;20506;-57
2023/12/20 01:24:47;;;;;;;6.50;4.43;;;6.90;99.90;;;;;;5030090;28;20037;-56
2023/12/20 01:27:13;;;;;;;6.90;4.60;;;6.90;99.90;;;;;;5026745;28;20495;-57
2023/12/20 01:29:38;;;;;;;5.57;4.55;;;6.90;99.90;;;;;;5030080;28;20033;-57
2023/12/20 01:32:04;;;;;;;6.30;4.57;;;6.90;99.90;;;;;;5023703;28;20033;-56
2023/12/20 01:34:29;;;;;;;6.18;4.63;;;6.90;99.90;;;;;;5029919;28;20095;-55
2023/12/20 01:36:55;;;;;;;5.82;4.45;;;6.80;99.90;;;;;;5024094;28;20029;-57
2023/12/20 01:39:21;;;;;;;6.18;4.88;;;6.90;99.90;;;;;;5028462;28;20036;-59
2023/12/20 01:41:46;;;;;;;6.10;4.53;;;6.90;99.90;;;;;;5021770;28;20112;-54
2023/12/20 01:44:12;;;;;;;5.25;4.30;;;6.80;99.90;;;;;;5029999;28;20045;-56
2023/12/20 01:46:38;;;;;;;6.60;4.30;;;6.80;99.90;;;;;;5021041;28;20029;-55
2023/12/20 01:49:03;;;;;;;6.88;5.47;;;6.80;99.90;;;;;;5010840;28;20053;-56
2023/12/20 01:51:29;;;;;;;6.22;4.15;;;6.80;99.90;;;;;;5028639;28;20049;-54
2023/12/20 01:53:57;;;;;;;6.88;5.28;;;6.80;99.90;;;;;;5010565;28;20026;-55
2023/12/20 01:56:23;;;;;;;6.55;5.22;;;6.80;99.90;;;;;;5027842;28;20053;-56
2023/12/20 01:58:49;;;;;;;5.97;4.07;;;6.80;99.90;;;;;;5010366;28;20049;-56
2023/12/20 02:01:15;;;;;;;7.32;4.90;;;6.80;99.90;;;;;;5019879;28;20032;-56
2023/12/20 02:03:41;;;;;;;6.10;4.43;;;6.80;99.90;;;;;;5010185;28;20099;-55
2023/12/20 02:06:08;;;;;;;5.05;4.05;;;6.90;99.90;;;;;;5028626;28;20129;-56
2023/12/20 02:08:34;;;;;;;6.13;4.55;;;6.80;99.90;;;;;;5029583;28;20021;-53
2023/12/20 02:11:00;;;;;;;5.57;4.40;;;6.80;99.90;;;;;;5015445;28;20018;-55
2023/12/20 02:13:26;;;;;;;5.38;4.20;;;6.90;99.90;;;;;;5029505;28;20037;-53
2023/12/20 02:15:52;;;;;;;5.43;4.25;;;6.80;99.90;;;;;;5014313;28;20063;-56
2023/12/20 02:18:18;;;;;;;4.13;3.65;;;6.90;99.90;;;;;;5029530;28;20022;-53
2023/12/20 02:20:43;;;;;;;4.13;3.63;;;6.90;99.90;;;;;;5013209;28;20179;-56
2023/12/20 02:23:09;;;;;;;5.20;3.97;;;6.90;99.90;;;;;;5029141;28;20136;-53
2023/12/20 02:25:34;;;;;;;5.43;3.90;;;6.90;99.90;;;;;;5011861;28;20034;-52
2023/12/20 02:28:01;;;;;;;3.92;3.25;;;6.90;99.90;;;;;;5029094;28;20515;-54
2023/12/20 02:30:26;;;;;;;5.82;3.40;;;6.90;99.90;;;;;;5009177;28;20121;-56
2023/12/20 02:32:53;;;;;;;3.40;2.75;;;6.90;99.90;;;;;;5029016;28;20104;-55
2023/12/20 02:35:18;;;;;;;3.50;2.90;;;6.90;99.90;;;;;;5009792;28;20029;-55
2023/12/20 02:37:44;;;;;;;3.25;2.60;;;6.90;99.90;;;;;;5028759;28;20034;-55
2023/12/20 02:40:10;;;;;;;3.45;2.83;;;6.90;99.90;;;;;;5009788;28;20151;-55
2023/12/20 02:42:35;;;;;;;4.07;2.72;;;7.00;99.90;;;;;;5028096;28;20033;-55
2023/12/20 02:45:01;;;;;;;4.53;2.83;;;7.00;99.90;;;;;;5028618;28;20060;-56
2023/12/20 02:47:26;;;;;;;4.10;2.97;;;7.00;99.90;;;;;;5025733;28;20079;-56
2023/12/20 02:49:52;;;;;;;4.03;2.53;;;7.00;99.90;;;;;;5028657;28;20510;-56
2023/12/20 02:52:18;;;;;;;5.32;2.80;;;7.00;99.90;;;;;;5025507;28;20029;-54
2023/12/20 02:54:44;;;;;;;3.88;2.70;;;7.00;99.90;;;;;;5028834;28;20406;-55
2023/12/20 02:57:09;;;;;;;4.05;2.58;;;7.00;99.90;;;;;;5024529;28;20033;-56
2023/12/20 02:59:35;;;;;;;3.10;2.28;;;7.00;99.90;;;;;;5027666;28;20104;-55
2023/12/20 03:02:00;;;;;;;4.20;2.60;;;7.00;99.90;;;;;;5015388;28;20034;-55
2023/12/20 03:04:26;;;;;;;4.70;2.67;;;7.00;99.90;;;;;;5009615;28;20042;-54
2023/12/20 03:06:51;;;;;;;4.13;2.70;;;7.00;99.90;;;;;;5027739;28;20034;-56
2023/12/20 03:09:18;;;;;;;3.08;2.45;;;7.00;99.90;;;;;;5028545;28;20038;-55
2023/12/20 03:11:43;;;;;;;2.78;2.30;;;7.00;99.90;;;;;;5019514;28;20065;-54
2023/12/20 03:14:09;;;;;;;3.78;2.15;;;7.00;99.90;;;;;;5028436;28;20057;-54
2023/12/20 03:16:34;;;;;;;3.30;1.88;;;7.00;99.90;;;;;;5019614;28;20064;-55
2023/12/20 03:19:00;;;;;;;2.80;2.10;;;7.00;99.90;;;;;;5009441;28;20465;-55
2023/12/20 03:21:25;;;;;;;4.35;2.33;;;7.00;99.90;;;;;;5027543;28;20068;-53
2023/12/20 03:23:51;;;;;;;5.00;2.00;;;7.00;99.90;;;;;;5009104;28;20536;-54
2023/12/20 03:26:16;;;;;;;3.40;1.88;;;7.00;99.90;;;;;;5027477;28;20033;-53
2023/12/20 03:28:42;;;;;;;2.60;1.80;;;7.00;99.90;;;;;;5028572;28;20099;-56
2023/12/20 03:31:09;;;;;;;3.45;2.38;;;7.00;99.90;;;;;;5014380;28;20021;-56
2023/12/20 03:33:34;;;;;;;4.40;1.80;;;6.90;99.90;;;;;;5028628;28;20029;-56
2023/12/20 03:36:00;;;;;;;2.42;1.52;;;7.00;99.90;;;;;;5014668;28;20297;-55
2023/12/20 03:38:25;;;;;;;2.17;1.50;;;6.90;99.90;;;;;;5028445;28;20065;-56
2023/12/20 03:40:50;;;;;;;2.63;1.70;;;6.90;99.90;;;;;;5013328;28;20395;-56
2023/12/20 03:43:16;;;;;;;3.08;1.73;;;6.90;99.90;;;;;;5028501;28;20442;-56
2023/12/20 03:45:43;;;;;;;5.65;1.58;;;6.90;99.90;;;;;;5011949;28;20037;-56
2023/12/20 03:48:08;;;;;;;3.83;1.70;;;6.90;99.90;;;;;;5028466;28;20018;-55
2023/12/20 03:50:34;;;;;;;4.22;1.70;;;6.80;99.90;;;;;;5011105;28;20036;-56
2023/12/20 03:53:00;;;;;;;7.78;2.03;;;6.80;99.90;;;;;;5028315;28;20021;-56
2023/12/20 03:55:25;;;;;;;2.97;1.80;;;6.80;99.90;;;;;;5009973;28;20171;-54
2023/12/20 03:57:51;;;;;;;5.43;1.95;;;6.80;99.90;;;;;;5017431;28;20592;-56
2023/12/20 04:00:17;;;;;;;4.90;1.50;;;6.70;99.90;;;;;;5026523;28;20037;-56
2023/12/20 04:02:42;;;;;;;3.92;1.92;;;6.70;99.90;;;;;;5022389;28;20084;-68
2023/12/20 04:05:09;;;;;;;1.98;1.33;;;6.70;99.90;;;;;;5011871;28;20496;-69
2023/12/20 04:07:37;;;;;;;4.93;1.40;;;6.70;99.90;;;;;;5030927;28;20034;-70
2023/12/20 04:10:06;;;;;;;8.20;1.38;;;6.70;99.90;;;;;;5031536;28;20037;-69
2023/12/20 04:12:32;;;;;;;5.85;1.80;;;6.60;99.90;;;;;;5030274;28;20048;-57
2023/12/20 04:14:58;;;;;;;6.22;1.42;;;6.60;99.90;;;;;;5031653;28;20395;-55
2023/12/20 04:17:23;;;;;;;4.18;1.13;;;6.50;99.90;;;;;;5029374;28;20034;-57
2023/12/20 04:19:49;;;;;;;4.30;1.10;;;6.50;99.90;;;;;;5030200;28;20017;-56
2023/12/20 04:22:15;;;;;;;3.63;1.55;;;6.40;99.90;;;;;;5027766;28;20040;-56
2023/12/20 04:24:42;;;;;;;2.58;1.55;;;6.40;99.90;;;;;;5031295;28;20037;-55
2023/12/20 04:27:08;;;;;;;6.00;1.27;;;6.30;99.90;;;;;;5027008;28;20029;-57
2023/12/20 04:29:33;;;;;;;3.25;1.52;;;6.20;99.90;;;;;;5031086;28;20114;-56
2023/12/20 04:31:59;;;;;;;4.95;1.25;;;6.20;99.90;;;;;;5024196;28;20526;-55
2023/12/20 04:34:24;;;;;;;2.65;1.13;;;6.20;99.90;;;;;;5023028;28;20049;-56
2023/12/20 04:36:50;;;;;;;2.05;1.10;;;6.20;99.90;;;;;;5021194;28;20460;-56
2023/12/20 04:39:15;;;;;;;3.28;1.55;;;6.20;99.90;;;;;;5016989;28;20080;-55
2023/12/20 04:41:41;;;;;;;5.72;1.30;;;6.20;99.90;;;;;;5023785;28;20083;-56
2023/12/20 04:44:07;;;;;;;5.55;1.17;;;6.20;99.90;;;;;;5021142;28;20064;-56
2023/12/20 04:46:32;;;;;;;9.35;1.52;;;6.20;99.90;;;;;;5019839;28;20041;-56
2023/12/20 04:48:58;;;;;;;5.93;1.20;;;6.20;99.90;;;;;;5022301;28;20052;-52
2023/12/20 04:51:23;;;;;;;3.25;1.38;;;6.20;99.90;;;;;;5020942;28;20390;-56
2023/12/20 04:53:49;;;;;;;9.07;1.38;;;6.20;99.90;;;;;;5019828;28;20825;-56
2023/12/20 04:56:14;;;;;;;7.22;1.30;;;6.20;99.90;;;;;;5023803;28;20542;-56
2023/12/20 04:58:40;;;;;;;2.95;1.10;;;6.20;99.90;;;;;;5022026;28;20061;-56
2023/12/20 05:01:06;;;;;;;2.75;1.10;;;6.10;99.90;;;;;;5016381;28;20045;-56
2023/12/20 05:03:31;;;;;;;6.95;1.40;;;6.00;99.90;;;;;;5009083;28;20517;-57
2023/12/20 05:05:57;;;;;;;3.17;0.90;;;6.00;99.90;;;;;;5018427;28;20022;-57
2023/12/20 05:08:22;;;;;;;7.32;1.48;;;6.00;99.90;;;;;;5021188;28;20104;-56
2023/12/20 05:10:48;;;;;;;2.30;0.90;;;5.90;99.90;;;;;;5021832;28;20391;-55
2023/12/20 05:13:13;;;;;;;7.25;1.42;;;5.80;99.90;;;;;;5018735;28;20029;-55
2023/12/20 05:15:39;;;;;;;3.33;1.58;;;5.80;99.90;;;;;;5019184;28;20480;-57
2023/12/20 05:18:05;;;;;;;8.57;1.27;;;5.90;99.90;;;;;;5021321;28;20064;-54
2023/12/20 05:20:30;;;;;;;6.10;1.33;;;5.80;99.90;;;;;;5021432;28;20160;-55
2023/12/20 05:22:55;;;;;;;3.88;1.70;;;5.80;99.90;;;;;;5023371;28;20048;-56
2023/12/20 05:25:21;;;;;;;6.50;1.40;;;5.70;99.90;;;;;;5021312;28;20229;-55
2023/12/20 05:27:47;;;;;;;3.80;1.10;;;5.70;99.90;;;;;;5021455;28;20530;-56
2023/12/20 05:30:12;;;;;;;8.43;1.45;;;5.70;99.90;;;;;;5021336;28;20043;-55
2023/12/20 05:32:38;;;;;;;6.70;1.80;;;5.70;99.90;;;;;;5021184;28;20029;-56
2023/12/20 05:35:03;;;;;;;7.68;1.30;;;5.70;99.90;;;;;;5012427;28;20017;-56
2023/12/20 05:37:29;;;;;;;12.73;1.45;;;5.60;99.90;;;;;;5018863;28;20457;-56
2023/12/20 05:39:54;;;;;;;9.73;1.50;;;5.60;99.90;;;;;;5012996;28;20045;-56
2023/12/20 05:42:20;;;;;;;4.47;1.00;;;5.70;99.90;;;;;;5014529;28;20083;-53
2023/12/20 05:44:45;;;;;;;6.60;1.33;;;5.70;99.90;;;;;;5015631;28;20025;-56
2023/12/20 05:47:11;;;;;;;4.22;1.42;;;5.70;99.90;;;;;;5020721;28;20434;-56
2023/12/20 05:49:36;;;;;;;6.35;1.70;;;5.70;99.90;;;;;;5021059;28;20036;-56
2023/12/20 05:52:02;;;;;;;7.18;1.83;;;5.80;99.90;;;;;;5022728;28;20537;-56
2023/12/20 05:54:28;;;;;;;4.15;1.10;;;5.70;99.90;;;;;;5016207;28;20604;-57
2023/12/20 05:56:53;;;;;;;8.02;2.55;;;5.70;99.90;;;;;;5021124;28;20110;-56
2023/12/20 05:59:19;;;;;;;6.78;1.50;;;5.70;99.90;;;;;;5011101;28;20030;-56
2023/12/20 06:01:44;;;;;;;7.38;1.52;;;5.60;99.90;;;;;;5012427;28;20137;-57
2023/12/20 06:04:10;;;;;;;7.95;1.73;;;5.50;99.90;;;;;;5016089;28;20022;-57
2023/12/20 06:06:41;;;;;;;12.43;1.85;;;5.40;99.90;;;;;;5014027;28;20581;-52
2023/12/20 06:09:06;;;;;;;5.13;1.67;;;5.30;99.90;;;;;;5014627;28;20080;-54
2023/12/20 06:11:31;;;;;;;10.10;1.63;;;5.30;99.90;;;;;;5009712;28;20034;-52
2023/12/20 06:13:57;;;;;;;13.07;2.40;;;5.20;99.90;;;;;;5012062;28;20053;-53
2023/12/20 06:16:22;;;;;;;10.93;1.75;;;5.00;99.90;;;;;;5014520;28;20025;-53
2023/12/20 06:18:48;;;;;;;6.30;1.88;;;5.00;99.90;;;;;;5013706;28;20402;-53
2023/12/20 06:21:14;;;;;;;5.63;1.50;;;4.90;99.90;;;;;;5019931;28;20025;-49
2023/12/20 06:23:39;;;;;;;8.20;1.85;;;4.90;99.90;;;;;;5021971;28;20036;-55
2023/12/20 06:26:05;;;;;;;9.48;1.55;;;4.70;99.90;;;;;;5019644;28;20037;-54
2023/12/20 06:28:30;;;;;;;7.63;2.13;;;4.70;99.90;;;;;;5019953;28;20033;-53
2023/12/20 06:30:57;;;;;;;6.35;1.52;;;4.60;99.90;;;;;;5017593;28;20494;-54
2023/12/20 06:33:22;;;;;;;7.25;2.17;;;4.60;99.90;;;;;;5019851;28;20029;-53
2023/12/20 06:35:48;;;;;;;6.00;2.10;;;4.60;99.90;;;;;;5019899;28;20605;-49
2023/12/20 06:38:14;;;;;;;8.65;2.17;;;4.60;99.90;;;;;;5022340;28;20052;-51
2023/12/20 06:40:39;;;;;;;6.45;1.80;;;4.60;99.90;;;;;;5020941;28;20483;-52
2023/12/20 06:43:06;;;;;;;10.02;2.17;;;4.70;99.90;;;;;;5019784;28;20407;-54
2023/12/20 06:45:32;;;;;;;9.23;1.65;;;4.70;99.90;;;;;;5019392;28;20029;-54
2023/12/20 06:47:58;;;;;;;7.00;2.22;;;4.70;99.90;;;;;;5015024;28;20033;-53
2023/12/20 06:50:24;;;;;;;12.90;1.88;;;4.70;99.90;;;;;;5011430;28;20018;-63
2023/12/20 06:52:49;;;;;;;2.80;1.40;;;4.70;99.90;;;;;;5017575;28;20025;-52
2023/12/20 06:55:15;;;;;;;7.88;2.00;;;4.70;99.90;;;;;;5015347;28;20047;-64
2023/12/20 06:57:40;;;;;;;5.97;1.88;;;4.60;99.90;;;;;;5013018;28;20052;-65
2023/12/20 07:00:06;;;;;;;4.13;2.05;;;4.70;99.90;;;;;;5013925;28;20101;-64
2023/12/20 07:02:32;;;;;;;10.90;2.95;;;4.70;99.90;;;;;;5016072;28;20264;-64
2023/12/20 07:04:57;;;;;;;5.95;1.85;;;4.70;99.90;;;;;;5019592;28;20268;-64
2023/12/20 07:07:26;;;;;;;12.02;2.83;;;4.70;99.90;;;;;;5018677;28;20021;-64
2023/12/20 07:09:52;;;;;;;4.70;2.00;;;4.70;99.90;;;;;;5019845;28;20018;-64
2023/12/20 07:12:19;;;;;;;11.32;2.13;;;4.70;99.90;;;;;;5018202;28;20037;-64
2023/12/20 07:14:45;;;;;;;9.98;2.25;;;4.70;99.90;;;;;;5018182;28;20080;-64
2023/12/20 07:17:13;;;;;;;7.18;2.10;;;4.70;99.90;;;;;;5019422;28;20021;-64
2023/12/20 07:19:39;;;;;;;7.35;2.10;;;4.70;99.90;;;;;;5018010;28;20116;-64
2023/12/20 07:22:05;;;;;;;9.85;2.42;;;4.70;99.90;;;;;;5019289;28;20574;-65
2023/12/20 07:24:31;;;;;;;11.25;1.90;;;4.80;99.90;;;;;;5018026;28;20030;-66
2023/12/20 07:26:57;;;;;;;4.55;1.83;;;4.80;99.90;;;;;;5021372;28;20513;-64
2023/12/20 07:29:22;;;;;;;7.95;2.13;;;4.90;99.90;;;;;;5019477;28;20833;-64
2023/12/20 07:31:48;;;;;;;8.73;2.22;;;4.90;99.90;;;;;;5019161;28;20029;-64
2023/12/20 07:34:13;;;;;;;9.70;1.98;;;5.00;99.90;;;;;;5019232;28;20096;-64
2023/12/20 07:36:39;;;;;;;13.80;2.42;;;5.00;99.90;;;;;;5019341;28;20025;-65
2023/12/20 07:39:04;;;;;;;11.57;1.70;;;5.10;99.90;;;;;;5022412;28;20045;-63
2023/12/20 07:41:30;;;;;;;4.40;1.80;;;5.20;99.90;;;;;;5025163;28;20562;-64
2023/12/20 07:43:56;;;;;;;8.40;2.10;;;5.30;99.90;;;;;;5023113;28;20029;-64
2023/12/20 07:46:23;;;;;;;11.93;2.10;;;5.30;99.90;;;;;;5018852;28;20021;-63
2023/12/20 07:48:48;;;;;;;7.10;2.65;;;5.40;99.90;;;;;;5023115;28;20098;-64
2023/12/20 07:51:14;;;;;;;22.10;2.53;;;5.40;99.90;;;;;;5023056;28;20499;-64
2023/12/20 07:53:39;;;;;;;6.30;2.05;;;5.40;99.90;;;;;;5018402;28;20029;-64
2023/12/20 07:56:18;;;;;;;8.70;2.38;;;5.50;99.90;;;;;;5020842;28;20124;-64
2023/12/20 07:58:44;;;;;;;7.10;2.10;;;5.50;99.90;;;;;;5020215;28;20037;-64
2023/12/20 08:01:11;;;;;;;10.20;2.50;;;5.50;99.90;;;;;;5019713;28;20028;-64
2023/12/20 08:03:37;;;;;;;9.25;2.55;;;5.50;99.90;;;;;;5021573;28;20025;-64
2023/12/20 08:06:03;;;;;;;10.77;2.88;;;5.50;99.90;;;;;;5019921;28;20474;-65
2023/12/20 08:08:28;;;;;;;7.60;2.35;;;5.60;99.90;;;;;;5021232;28;20040;-64
2023/12/20 08:10:54;;;;;;;9.48;1.77;;;5.60;99.90;;;;;;5021368;28;20029;-54
2023/12/20 08:13:24;;;;;;;6.63;2.03;;;5.60;99.90;;;;;;5022547;28;20037;-54
2023/12/20 08:15:50;;;;;;;10.07;2.28;;;5.60;99.90;;;;;;5022630;28;20033;-53
2023/12/20 08:18:15;;;;;;;8.48;2.35;;;5.70;99.90;;;;;;5022651;28;20030;-54
2023/12/20 08:20:41;;;;;;;8.65;2.55;;;5.70;99.90;;;;;;5024249;28;20029;-54
2023/12/20 08:23:06;;;;;;;8.13;2.13;;;5.70;99.90;;;;;;5022356;28;20072;-53
2023/12/20 08:25:32;;;;;;;8.20;2.53;;;5.80;99.90;;;;;;5022236;28;20034;-53
2023/12/20 08:27:57;;;;;;;6.55;2.20;;;5.80;99.90;;;;;;5022291;28;20045;-52
2023/12/20 08:30:23;;;;;;;8.60;2.58;;;5.80;99.90;;;;;;5022196;28;20018;-54
2023/12/20 08:32:48;;;;;;;16.33;2.00;;;5.80;99.90;;;;;;5022366;28;20105;-52
2023/12/20 08:35:14;;;;;;;6.78;2.03;;;5.80;99.90;;;;;;5022277;28;20084;-54
2023/12/20 08:37:39;;;;;;;10.35;3.13;;;5.80;99.90;;;;;;5023881;28;20032;-53
2023/12/20 08:40:05;;;;;;;12.98;2.13;;;5.80;99.90;;;;;;5022055;28;20028;-52
2023/12/20 08:42:31;;;;;;;14.00;2.55;;;5.90;99.90;;;;;;5021896;28;20032;-53
2023/12/20 08:44:59;;;;;;;7.10;1.63;;;5.90;99.90;;;;;;5022114;28;20204;-54
2023/12/20 08:47:25;;;;;;;6.75;1.90;;;5.90;99.90;;;;;;5021748;28;20025;-54
2023/12/20 08:49:50;;;;;;;11.13;2.45;;;5.90;99.90;;;;;;5021270;28;20021;-51
2023/12/20 08:52:16;;;;;;;9.75;1.85;;;5.90;99.90;;;;;;5021764;28;20030;-52
2023/12/20 08:54:42;;;;;;;6.25;1.80;;;5.90;99.90;;;;;;5023698;28;20105;-50
2023/12/20 08:57:07;;;;;;;9.35;1.70;;;6.00;99.90;;;;;;5022886;28;20087;-54
2023/12/20 08:59:33;;;;;;;9.27;2.33;;;6.00;99.90;;;;;;5021601;28;20036;-53
2023/12/20 09:01:58;;;;;;;8.52;2.00;;;6.00;99.90;;;;;;5015573;28;20026;-52
2023/12/20 09:04:25;;;;;;;8.95;1.67;;;6.10;99.90;;;;;;5021763;28;20032;-52
2023/12/20 09:06:50;;;;;;;11.68;1.98;;;6.10;99.90;;;;;;5021418;28;20693;-50
2023/12/20 09:09:16;;;;;;;7.45;1.75;;;6.30;99.90;;;;;;5023201;28;20104;-53
2023/12/20 09:11:42;;;;;;;10.45;2.25;;;6.50;99.90;;;;;;5021488;28;20086;-54
2023/12/20 09:14:07;;;;;;;5.22;1.85;;;6.50;99.90;;;;;;5021461;28;21038;-53
2023/12/20 09:16:33;;;;;;;6.30;1.80;;;6.60;99.90;;;;;;5021323;28;20400;-53
2023/12/20 09:18:58;;;;;;;8.50;1.58;;;6.60;99.90;;;;;;5021244;28;20036;-54
2023/12/20 09:21:24;;;;;;;8.02;2.22;;;6.70;99.90;;;;;;5021178;28;20029;-55
2023/12/20 09:23:49;;;;;;;5.47;1.70;;;6.70;99.90;;;;;;5022805;28;20033;-52
2023/12/20 09:26:15;;;;;;;6.20;1.58;;;6.70;99.90;;;;;;5021150;28;20036;-54
2023/12/20 09:28:40;;;;;;;8.85;2.20;;;6.70;99.90;;;;;;5021120;28;20385;-51
2023/12/20 09:31:06;;;;;;;5.38;1.98;;;6.70;99.90;;;;;;5020085;28;20029;-53
2023/12/20 09:33:32;;;;;;;13.38;2.10;;;6.80;99.90;;;;;;5020974;28;20024;-54
2023/12/20 09:35:58;;;;;;;7.47;1.60;;;6.80;99.90;;;;;;5022039;28;20033;-54
2023/12/20 09:38:24;;;;;;;9.98;1.83;;;6.80;99.90;;;;;;5018654;28;20060;-51
2023/12/20 09:40:50;;;;;;;9.73;2.47;;;6.80;99.90;;;;;;5021127;28;20025;-52
2023/12/20 09:43:19;;;;;;;9.98;1.77;;;6.80;99.90;;;;;;5020716;28;20064;-54
2023/12/20 09:45:46;;;;;;;10.43;2.10;;;6.80;99.90;;;;;;5020524;28;20033;-53
2023/12/20 09:48:14;;;;;;;8.90;2.00;;;6.80;99.90;;;;;;5019657;28;20497;-55
2023/12/20 09:50:40;;;;;;;8.82;1.65;;;6.70;99.90;;;;;;5020641;28;20049;-53
2023/12/20 09:53:09;;;;;;;5.50;1.20;;;6.70;99.90;;;;;;5020297;28;20057;-55
2023/12/20 09:55:36;;;;;;;8.25;1.85;;;6.70;99.90;;;;;;5020628;28;20029;-54
2023/12/20 09:58:01;;;;;;;11.98;2.00;;;6.70;99.90;;;;;;5022203;28;20116;-53
2023/12/20 10:00:27;;;;;;;4.57;1.77;;;6.60;99.90;;;;;;5020413;28;20097;-52
2023/12/20 10:02:58;;;;;;;4.93;1.75;;;6.60;99.90;;;;;;5016512;28;20092;-53
2023/12/20 10:05:34;;;;;;;10.95;2.13;;;6.60;99.90;;;;;;5020325;28;20121;-53
2023/12/20 10:08:00;;;;;;;6.50;1.92;;;6.60;99.90;;;;;;5018532;28;20174;-53
2023/12/20 10:10:26;;;;;;;9.05;1.67;;;6.60;99.90;;;;;;5020280;28;20055;-52
2023/12/20 10:13:06;;;;;;;9.52;2.08;;;6.60;99.90;;;;;;5020217;28;20061;-54
2023/12/20 10:15:33;;;;;;;12.32;1.90;;;6.60;99.90;;;;;;5020162;28;20026;-53
2023/12/20 10:17:59;;;;;;;4.22;1.58;;;6.60;99.90;;;;;;5016032;28;20061;-51
2023/12/20 10:20:25;;;;;;;7.60;1.95;;;6.60;99.90;;;;;;5016323;28;20501;-54
2023/12/20 10:22:53;;;;;;;6.18;1.85;;;6.60;99.90;;;;;;5019936;28;20040;-56
2023/12/20 10:25:19;;;;;;;8.93;2.03;;;6.50;99.90;;;;;;5020182;28;20014;-56
2023/12/20 10:27:45;;;;;;;10.52;2.15;;;6.60;99.90;;;;;;5020005;28;20103;-52
2023/12/20 10:30:11;;;;;;;10.27;1.90;;;6.50;99.90;;;;;;5021694;28;20483;-56
2023/12/20 10:32:36;;;;;;;4.30;1.40;;;6.50;99.90;;;;;;5020185;28;20057;-53
2023/12/20 10:35:02;;;;;;;6.13;1.83;;;6.50;99.90;;;;;;5019714;28;20113;-55
2023/12/20 10:37:27;;;;;;;6.43;2.50;;;6.60;99.90;;;;;;5019831;28;20112;-57
2023/12/20 10:39:57;;;;;;;7.68;2.13;;;6.60;99.90;;;;;;5019724;28;20545;-56
2023/12/20 10:42:26;;;;;;;4.20;1.77;;;6.60;99.90;;;;;;5019660;28;20043;-56
2023/12/20 10:44:53;;;;;;;4.53;1.70;;;6.70;99.90;;;;;;5018030;28;20457;-57
2023/12/20 10:47:19;;;;;;;7.30;2.08;;;6.70;99.90;;;;;;5019637;28;20028;-57
2023/12/20 10:49:46;;;;;;;7.32;2.17;;;6.70;99.90;;;;;;5021474;28;20053;-56
2023/12/20 10:52:12;;;;;;;10.32;2.17;;;6.70;99.90;;;;;;5016590;28;20518;-55
2023/12/20 10:54:39;;;;;;;7.30;2.53;;;6.70;99.90;;;;;;5018939;28;20498;-56
2023/12/20 10:57:06;;;;;;;6.53;1.85;;;6.70;99.90;;;;;;5019645;28;20037;-56
2023/12/20 10:59:34;;;;;;;10.10;2.25;;;6.70;99.90;;;;;;5019438;28;20095;-55
2023/12/20 11:02:05;;;;;;;8.88;2.78;;;6.80;99.90;;;;;;5010250;28;20076;-56
2023/12/20 11:04:52;;;;;;;9.30;1.88;;;6.80;99.90;;;;;;5018085;28;20029;-55
2023/12/20 11:07:37;;;;;;;10.23;2.15;;;6.80;99.90;;;;;;5017889;28;20369;-54
2023/12/20 11:11:01;;;;;;;7.03;2.65;;;6.80;99.90;;;;;;5019653;28;20032;-55
2023/12/20 11:13:32;;;;;;;10.50;2.30;;;6.90;99.90;;;;;;5006994;28;20057;-55
2023/12/20 11:15:59;;;;;;;9.27;2.45;;;6.90;99.90;;;;;;5023466;28;20029;-55
2023/12/20 11:18:31;;;;;;;7.28;1.90;;;7.00;99.90;;;;;;5023174;28;20116;-57
2023/12/20 11:21:10;;;;;;;13.88;3.22;;;7.00;99.90;;;;;;5023210;28;20021;-57
2023/12/20 11:23:36;;;;;;;7.25;1.92;;;6.90;99.90;;;;;;5023531;28;20030;-55
2023/12/20 11:26:03;;;;;;;12.68;3.10;;;7.00;99.90;;;;;;5022204;28;20021;-57
2023/12/20 11:28:29;;;;;;;11.13;2.38;;;7.00;99.90;;;;;;5024507;28;20030;-55
2023/12/20 11:31:00;;;;;;;13.40;3.20;;;6.90;99.90;;;;;;5025539;28;20014;-56
2023/12/20 11:33:36;;;;;;;20.00;5.53;;;6.90;99.90;;;;;;5021624;28;20026;-57
2023/12/20 11:36:02;;;;;;;21.63;4.50;;;6.90;99.90;;;;;;5023487;28;20022;-56
2023/12/20 11:38:36;;;;;;;17.42;3.70;;;7.00;99.90;;;;;;5023393;28;20025;-56
2023/12/20 11:41:05;;;;;;;8.77;3.20;;;6.90;99.90;;;;;;5023231;28;20022;-56
2023/12/20 11:43:37;;;;;;;23.00;4.95;;;6.90;99.90;;;;;;5023021;28;20650;-57
2023/12/20 11:46:08;;;;;;;8.18;3.30;;;6.90;99.90;;;;;;5024864;28;20017;-55
2023/12/20 11:48:37;;;;;;;16.25;4.38;;;6.90;99.90;;;;;;5019593;28;20033;-56
2023/12/20 11:51:03;;;;;;;14.32;3.15;;;6.80;99.90;;;;;;5024640;28;20119;-57
2023/12/20 11:53:30;;;;;;;8.80;2.17;;;6.80;99.90;;;;;;5020884;28;20049;-55
2023/12/20 11:55:56;;;;;;;6.53;2.90;;;6.80;99.90;;;;;;5022828;28;20037;-54
2023/12/20 11:58:22;;;;;;;9.13;2.30;;;6.80;99.90;;;;;;5022541;28;20041;-55
2023/12/20 12:00:49;;;;;;;15.23;5.65;;;6.70;99.90;;;;;;5023018;28;20022;-57
2023/12/20 12:03:15;;;;;;;18.02;6.20;;;6.70;99.90;;;;;;5016386;28;20038;-56
2023/12/20 12:05:41;;;;;;;22.20;6.88;;;6.70;99.90;;;;;;5022840;28;20087;-56
2023/12/20 12:08:07;;;;;;;14.85;4.70;;;6.70;99.90;;;;;;5020575;28;20030;-56
2023/12/20 12:10:33;;;;;;;15.93;5.10;;;6.70;99.90;;;;;;5022784;28;20033;-57
2023/12/20 12:12:59;;;;;;;20.83;8.02;;;6.70;99.90;;;;;;5022599;28;20037;-57
2023/12/20 12:15:25;;;;;;;19.65;5.30;;;6.70;99.90;;;;;;5022488;28;20022;-56
2023/12/20 12:17:57;;;;;;;14.27;5.78;;;6.80;99.90;;;;;;5022529;28;20191;-57
2023/12/20 12:20:23;;;;;;;16.95;3.78;;;6.70;99.90;;;;;;5022344;28;20027;-57
2023/12/20 12:23:06;;;;;;;14.10;4.55;;;6.80;99.90;;;;;;5022286;28;20538;-57
2023/12/20 12:25:32;;;;;;;11.98;3.50;;;6.90;99.90;;;;;;5021229;28;20029;-57
2023/12/20 12:27:59;;;;;;;10.35;3.40;;;6.90;99.90;;;;;;5022257;28;20029;-55
2023/12/20 12:30:25;;;;;;;15.20;4.60;;;6.90;99.90;;;;;;5022331;28;20068;-57
2023/12/20 12:32:52;;;;;;;17.10;4.93;;;6.90;99.90;;;;;;5022323;28;20038;-56
2023/12/20 12:35:18;;;;;;;16.33;6.68;;;6.90;99.90;;;;;;5022117;28;20364;-57
2023/12/20 12:37:43;;;;;;;16.52;4.07;;;6.80;99.90;;;;;;5022120;28;20075;-57
2023/12/20 12:40:13;;;;;;;18.65;5.75;;;6.80;99.90;;;;;;5023776;28;20029;-57
2023/12/20 12:42:41;;;;;;;24.17;8.20;;;6.80;99.90;;;;;;5022096;28;20546;-56
2023/12/20 12:45:07;;;;;;;15.55;3.83;;;6.70;99.90;;;;;;5021403;28;20093;-57
2023/12/20 12:47:33;;;;;;;10.90;3.40;;;6.70;99.90;;;;;;5021648;28;20030;-57
2023/12/20 12:49:59;;;;;;;15.35;5.10;;;6.80;99.90;;;;;;5020349;28;20028;-55
2023/12/20 12:52:26;;;;;;;14.55;3.13;;;6.70;99.90;;;;;;5020383;28;20581;-58